Main page
METAR-TAF:

METAR-TAF

Airports :

Lanseria International Airport

Lanseria, South Africa

latitude: 25-56S, longitude: 027-56E, elevation: 1377 m

Current weather observation

The report was made 1 hour and 11 minutes ago, at 00:00 UTC
Calm wind
Temperature 8°C
Humidity 76%
Pressure 1034 hPa

METAR: FALA 240000Z AUTO 00000KT //// ///////// 08/04 Q1034

Time: 03:11 (01:11 UTC)

Forecast

The report was made 3 hours and 11 minutes ago, at 22:00 UTC
Forecast valid from 24 at 00 UTC to 24 at 24 UTC
Wind 3 kt from variable directions
Visibility 10 km or more
no clouds below 1500 m and no cumulonimbus

TAF: FALA 232200Z 2400/2424 VRB03KT CAVOK TX20/2413Z TN06/2405Z

Weather observations and forecasts of more than 4000 airports (METAR and TAF reports).

The available stations are represented by yellow and red dots on the map.

Hover mouse over dot to see the name of the station.

Then click to see weather observations and forecasts.

To change the map : click on the green buttons with a black cross to zoom in, on the green button with a dash to zoom out, or on the green arrows for adjacent maps.


METAR-TAF: